Time;durP1;ratioP1;P1;durP2;ratioP2;P2;SDS_P1;SDS_P2;PMS_P1;PMS_P2;Temp;Humidity;BMP_temperature;BMP_pressure;BME280_temperature;BME280_humidity;BME280_pressure;Samples;Min_cycle;Max_cycle;Signal;HPM_P1;HPM_P2
2022/11/03 00:01:09;;;;;;;33.53;14.07;;;;;;;7.41;100.00;101223.96;3507073;82;98858;-93
2022/11/03 00:06:10;;;;;;;30.47;12.67;;;;;;;7.34;100.00;101220.16;3506054;82;99200;-87
2022/11/03 00:11:13;;;;;;;29.93;13.70;;;;;;;7.28;100.00;101229.72;3494115;83;31663;-82
2022/11/03 00:16:14;;;;;;;30.00;12.68;;;;;;;7.21;100.00;101227.52;3498880;83;99092;-82
2022/11/03 00:21:15;;;;;;;32.67;12.80;;;;;;;7.16;100.00;101233.77;3516794;82;32210;-82
2022/11/03 00:26:22;;;;;;;27.33;12.33;;;;;;;7.12;100.00;101241.05;3509399;82;98997;-82
2022/11/03 00:31:27;;;;;;;26.45;10.70;;;;;;;7.05;100.00;101236.68;3514112;82;30445;-81
2022/11/03 00:36:32;;;;;;;21.12;10.00;;;;;;;6.96;100.00;101238.67;3501844;82;99106;-82
2022/11/03 00:41:33;;;;;;;17.40;9.80;;;;;;;6.92;100.00;101242.64;3500251;83;31407;-82
2022/11/03 00:46:34;;;;;;;19.52;9.45;;;;;;;6.88;100.00;101238.96;3490119;83;98918;-82
2022/11/03 00:51:35;;;;;;;22.03;11.30;;;;;;;6.83;100.00;101238.37;3497789;83;31699;-82
2022/11/03 00:56:39;;;;;;;29.77;13.47;;;;;;;6.74;100.00;101236.24;3489092;83;98927;-82
2022/11/03 01:01:43;;;;;;;29.83;12.77;;;;;;;6.70;100.00;101242.95;3495433;83;29560;-82
2022/11/03 01:06:55;;;;;;;32.50;15.10;;;;;;;6.64;100.00;101233.34;3494780;83;99001;-82
2022/11/03 01:12:16;;;;;;;31.73;13.13;;;;;;;6.56;100.00;101239.67;3491060;83;32527;-83
2022/11/03 01:17:24;;;;;;;31.57;14.03;;;;;;;6.49;100.00;101234.48;3488010;83;99129;-82
2022/11/03 01:22:24;;;;;;;23.90;12.03;;;;;;;6.42;100.00;101230.89;3498542;83;32310;-82
2022/11/03 01:27:25;;;;;;;33.83;15.37;;;;;;;6.37;100.00;101235.17;3492797;83;99234;-82
2022/11/03 01:32:27;;;;;;;35.43;16.23;;;;;;;6.32;100.00;101235.36;3494421;83;31665;-83
2022/11/03 01:37:28;;;;;;;34.67;17.80;;;;;;;6.30;100.00;101226.69;3499019;82;99005;-82
2022/11/03 01:42:28;;;;;;;34.83;17.17;;;;;;;6.26;100.00;101227.66;3504952;82;31683;-82
2022/11/03 01:47:33;;;;;;;34.57;15.97;;;;;;;6.24;100.00;101230.75;3503899;83;99104;-83
2022/11/03 01:52:50;;;;;;;39.03;18.37;;;;;;;6.20;100.00;101213.39;3508754;82;34244;-82
2022/11/03 01:58:02;;;;;;;30.90;15.98;;;;;;;6.15;100.00;101214.13;3465889;83;99303;-82
2022/11/03 02:03:04;;;;;;;34.05;16.60;;;;;;;6.13;100.00;101213.11;3506462;82;31497;-82
2022/11/03 02:08:37;;;;;;;36.15;19.12;;;;;;;6.08;100.00;101213.84;3502879;82;99030;-82
2022/11/03 02:13:38;;;;;;;30.93;15.73;;;;;;;6.01;100.00;101208.09;3509242;82;30414;-82
2022/11/03 02:18:40;;;;;;;30.83;14.70;;;;;;;5.96;100.00;101204.17;3495263;82;99013;-82
2022/11/03 02:23:50;;;;;;;29.98;13.68;;;;;;;5.91;100.00;101196.97;3510090;82;31391;-82
2022/11/03 02:28:50;;;;;;;23.67;12.65;;;;;;;5.89;100.00;101195.69;3470534;82;99193;-82
2022/11/03 02:34:02;;;;;;;27.37;12.03;;;;;;;5.81;100.00;101197.87;3507175;82;31608;-82
2022/11/03 02:39:35;;;;;;;26.73;13.10;;;;;;;5.75;100.00;101197.23;3466842;82;99148;-82
2022/11/03 02:44:38;;;;;;;23.65;11.97;;;;;;;5.72;100.00;101195.72;3451907;84;33161;-82
2022/11/03 02:49:45;;;;;;;26.00;12.83;;;;;;;5.69;100.00;101197.72;3455705;84;98793;-82
2022/11/03 02:54:46;;;;;;;26.80;13.10;;;;;;;5.66;100.00;101190.16;3462432;84;32862;-82
2022/11/03 02:59:58;;;;;;;29.50;12.37;;;;;;;5.61;100.00;101189.78;3456218;84;98715;-82
2022/11/03 03:05:03;;;;;;;27.02;12.60;;;;;;;5.59;100.00;101191.23;3466069;84;33321;-82
2022/11/03 03:10:20;;;;;;;26.05;12.68;;;;;;;5.54;100.00;101190.86;3463310;84;98573;-83
2022/11/03 03:15:36;;;;;;;25.80;12.00;;;;;;;5.50;100.00;101187.72;3461714;84;26432;-83
2022/11/03 03:20:57;;;;;;;25.90;12.10;;;;;;;5.38;100.00;101184.86;3456051;84;99016;-83
2022/11/03 03:26:09;;;;;;;26.87;14.20;;;;;;;5.35;100.00;101178.70;3462294;84;29508;-82
2022/11/03 03:31:13;;;;;;;24.12;11.65;;;;;;;5.34;100.00;101179.83;3460007;84;33942;-82
2022/11/03 03:36:17;;;;;;;25.07;13.70;;;;;;;5.32;100.00;101169.77;3460759;84;99209;-83
2022/11/03 03:41:22;;;;;;;27.17;11.73;;;;;;;5.29;100.00;101171.80;3518183;82;30513;-82
2022/11/03 03:46:28;;;;;;;23.73;10.23;;;;;;;5.22;100.00;101157.83;3509053;82;99116;-83
2022/11/03 03:51:31;;;;;;;24.50;10.63;;;;;;;5.21;100.00;101163.87;3517236;82;26107;-82
2022/11/03 03:56:49;;;;;;;21.33;10.32;;;;;;;5.15;100.00;101154.25;3505161;82;98825;-82
2022/11/03 04:01:49;;;;;;;20.15;11.20;;;;;;;5.09;100.00;101152.81;3511535;82;32371;-82
2022/11/03 04:07:45;;;;;;;22.97;9.33;;;;;;;5.08;100.00;101163.46;3511174;82;99148;-82
2022/11/03 04:22:39;;;;;;;25.12;11.30;;;;;;;4.92;100.00;101161.56;3512876;82;26470;-83
2022/11/03 04:27:43;;;;;;;23.23;10.87;;;;;;;4.89;100.00;101164.37;3511224;82;99025;-83
2022/11/03 04:32:47;;;;;;;23.20;10.90;;;;;;;4.78;100.00;101156.27;3515207;82;26482;-83
2022/11/03 04:37:58;;;;;;;23.00;10.40;;;;;;;4.78;100.00;101162.27;3510914;82;99134;-83
2022/11/03 04:42:59;;;;;;;20.32;9.83;;;;;;;4.81;100.00;101165.16;3508682;82;31351;-82
2022/11/03 04:48:08;;;;;;;17.27;8.90;;;;;;;4.79;100.00;101170.69;3502077;82;98910;-83
2022/11/03 04:53:13;;;;;;;20.00;9.10;;;;;;;4.78;100.00;101160.91;3506603;82;31746;-83
2022/11/03 04:58:31;;;;;;;20.20;10.43;;;;;;;4.69;100.00;101151.94;3504188;82;99015;-83
2022/11/03 05:03:35;;;;;;;20.52;9.60;;;;;;;4.68;100.00;101157.12;3507080;82;31837;-83
2022/11/03 05:08:36;;;;;;;21.57;9.35;;;;;;;4.68;100.00;101150.31;3504045;82;98972;-81
2022/11/03 05:13:37;;;;;;;16.93;8.80;;;;;;;4.64;100.00;101149.37;3510454;82;32892;-83
2022/11/03 05:18:42;;;;;;;20.00;8.83;;;;;;;4.62;100.00;101149.68;3504000;82;98536;-83
2022/11/03 05:23:51;;;;;;;17.75;8.75;;;;;;;4.59;100.00;101148.16;3506457;82;32443;-82
2022/11/03 05:29:00;;;;;;;18.92;7.92;;;;;;;4.57;100.00;101147.66;3499988;82;98608;-82
2022/11/03 05:34:05;;;;;;;18.37;8.10;;;;;;;4.55;100.00;101156.18;3480596;82;28495;-83
2022/11/03 05:39:30;;;;;;;16.80;8.23;;;;;;;4.50;100.00;101142.70;3495095;82;98911;-82
2022/11/03 05:44:37;;;;;;;17.03;8.00;;;;;;;4.51;100.00;101144.30;3495936;83;26365;-83
2022/11/03 05:49:37;;;;;;;19.40;9.33;;;;;;;4.50;100.00;101149.52;3473107;83;98838;-82
2022/11/03 05:54:38;;;;;;;17.20;8.70;;;;;;;4.48;100.00;101152.31;3503961;83;31694;-83
2022/11/03 05:59:39;;;;;;;21.40;8.77;;;;;;;4.49;100.00;101160.73;3500078;83;99094;-82
2022/11/03 06:04:40;;;;;;;18.03;8.13;;;;;;;4.47;100.00;101158.31;3500467;83;31730;-82
2022/11/03 06:09:41;;;;;;;23.50;9.00;;;;;;;4.47;100.00;101154.81;3494942;83;98428;-83
2022/11/03 06:14:42;;;;;;;15.60;8.33;;;;;;;4.49;100.00;101157.45;3499131;83;31999;-82
2022/11/03 06:19:48;;;;;;;14.57;7.57;;;;;;;4.50;100.00;101157.70;3491180;83;98777;-83
2022/11/03 06:24:51;;;;;;;17.05;8.15;;;;;;;4.50;100.00;101155.52;3501807;83;26259;-82
2022/11/03 06:30:04;;;;;;;22.73;9.53;;;;;;;4.52;100.00;101153.27;3465143;83;98875;-82
2022/11/03 06:35:09;;;;;;;20.90;10.27;;;;;;;4.51;100.00;101153.03;3503816;83;29402;-81
2022/11/03 06:40:19;;;;;;;27.32;13.30;;;;;;;4.54;100.00;101155.91;3480745;82;99315;-82
2022/11/03 06:45:23;;;;;;;25.93;12.83;;;;;;;4.58;100.00;101154.16;3523493;82;28484;-82
2022/11/03 06:50:33;;;;;;;23.60;12.27;;;;;;;4.63;100.00;101154.01;3523813;82;99231;-82
2022/11/03 06:55:37;;;;;;;24.25;11.65;;;;;;;4.69;100.00;101154.09;3529689;82;32236;-82
2022/11/03 07:00:39;;;;;;;33.43;16.83;;;;;;;4.78;100.00;101160.36;3520961;82;98979;-82
2022/11/03 07:05:41;;;;;;;32.60;17.37;;;;;;;4.90;100.00;101167.33;3526644;82;33538;-83
2022/11/03 07:10:42;;;;;;;41.00;21.40;;;;;;;4.99;100.00;101157.78;3519902;82;98977;-82
2022/11/03 07:15:44;;;;;;;45.70;21.63;;;;;;;5.10;100.00;101152.23;3525895;82;31648;-82
2022/11/03 07:20:46;;;;;;;46.20;25.02;;;;;;;5.19;100.00;101147.00;3522138;82;99202;-82
2022/11/03 07:25:53;;;;;;;46.35;24.98;;;;;;;5.29;100.00;101148.02;3527622;82;31402;-82
2022/11/03 07:30:54;;;;;;;37.60;19.25;;;;;;;5.39;100.00;101139.50;3498618;82;98707;-83
2022/11/03 07:35:57;;;;;;;40.10;17.00;;;;;;;5.51;100.00;101130.64;3530408;82;32235;-84
2022/11/03 07:40:58;;;;;;;43.77;17.67;;;;;;;5.69;100.00;101123.98;3496319;82;98802;-83
2022/11/03 07:46:02;;;;;;;38.45;17.48;;;;;;;5.90;100.00;101128.99;3505279;83;32848;-83
2022/11/03 07:51:35;;;;;;;33.80;15.43;;;;;;;6.11;100.00;101116.97;3499323;83;98891;-85
2022/11/03 07:56:50;;;;;;;31.68;14.25;;;;;;;6.35;100.00;101110.32;3469862;83;98971;-83
2022/11/03 08:01:55;;;;;;;29.98;14.90;;;;;;;6.65;100.00;101102.86;3501352;83;31597;-83
2022/11/03 08:06:55;;;;;;;28.75;12.40;;;;;;;6.90;100.00;101097.16;3494921;83;99234;-82
2022/11/03 08:11:56;;;;;;;29.70;13.53;;;;;;;7.12;100.00;101093.23;3502206;83;32149;-82
2022/11/03 08:16:57;;;;;;;28.23;14.33;;;;;;;7.32;100.00;101083.58;3491567;83;99273;-82
2022/11/03 08:21:58;;;;;;;26.67;12.73;;;;;;;7.52;100.00;101081.34;3501274;83;31567;-82
2022/11/03 08:26:59;;;;;;;31.90;14.97;;;;;;;7.71;100.00;101074.75;3495348;83;99099;-83
2022/11/03 08:32:00;;;;;;;25.50;12.17;;;;;;;7.91;100.00;101070.30;3501879;83;31688;-82
2022/11/03 08:37:01;;;;;;;23.70;11.77;;;;;;;8.11;100.00;101070.72;3495641;83;99183;-83
2022/11/03 08:42:01;;;;;;;24.87;12.18;;;;;;;8.30;100.00;101064.88;3502736;83;31745;-83
2022/11/03 08:47:02;;;;;;;25.90;12.27;;;;;;;8.55;100.00;101061.50;3492070;83;99292;-83
2022/11/03 08:52:03;;;;;;;48.47;31.77;;;;;;;8.89;100.00;101051.33;3502694;83;35318;-83
2022/11/03 08:57:04;;;;;;;25.97;13.30;;;;;;;9.43;100.00;101050.42;3496111;83;99181;-83
2022/11/03 09:02:05;;;;;;;22.27;10.47;;;;;;;9.85;100.00;101051.47;3499863;83;25822;-82
2022/11/03 09:07:06;;;;;;;25.93;12.43;;;;;;;10.07;100.00;101045.91;3497740;83;99413;-83
2022/11/03 09:12:07;;;;;;;32.83;23.57;;;;;;;10.21;100.00;101022.86;3501684;83;34883;-83
2022/11/03 09:17:07;;;;;;;24.73;12.40;;;;;;;10.40;100.00;101018.17;3491822;83;99263;-83
2022/11/03 09:22:08;;;;;;;28.10;11.80;;;;;;;10.63;100.00;101014.13;3503083;83;34808;-83
2022/11/03 09:27:09;;;;;;;28.75;10.95;;;;;;;10.86;100.00;101007.48;3488992;83;99360;-83
2022/11/03 09:32:10;;;;;;;19.27;9.28;;;;;;;10.87;100.00;100992.58;3496470;83;34852;-82
2022/11/03 09:37:11;;;;;;;16.07;7.43;;;;;;;11.07;100.00;100990.58;3496864;83;99278;-84
2022/11/03 09:42:12;;;;;;;19.57;7.47;;;;;;;11.21;100.00;100990.24;3507585;82;27336;-83
2022/11/03 09:47:19;;;;;;;23.73;7.97;;;;;;;11.46;100.00;100986.53;3503311;82;99429;-83
2022/11/03 09:52:22;;;;;;;;;;;;;;;11.67;98.65;100982.16;3505632;82;26812;-84
2022/11/03 09:57:27;;;;;;;13.90;6.42;;;;;;;11.89;97.68;100977.17;3505053;82;85204;-83
2022/11/03 10:02:31;;;;;;;16.63;6.67;;;;;;;11.89;97.68;100977.17;3512116;82;26170;-83
2022/11/03 10:07:32;;;;;;;24.32;6.78;;;;;;;12.07;96.69;100965.02;3502439;82;99197;-84
2022/11/03 10:12:35;;;;;;;20.27;8.93;;;;;;;12.29;96.18;100964.93;3504523;82;28220;-84
2022/11/03 10:17:37;;;;;;;14.28;6.25;;;;;;;12.49;95.40;100964.18;3501708;82;99324;-83
2022/11/03 10:22:39;;;;;;;16.00;5.87;;;;;;;12.55;93.27;100940.58;3507996;82;32635;-83
2022/11/03 10:27:40;;;;;;;22.27;7.25;;;;;;;12.82;92.43;100966.92;3505443;82;99073;-83
2022/11/03 10:32:40;;;;;;;11.30;5.40;;;;;;;12.97;92.38;100967.31;3510949;82;29669;-84
2022/11/03 10:37:41;;;;;;;19.73;6.22;;;;;;;13.10;91.29;100960.31;3504685;82;99156;-83
2022/11/03 10:42:48;;;;;;;27.67;10.60;;;;;;;13.19;90.63;100955.28;3499804;83;29249;-83
2022/11/03 10:48:01;;;;;;;21.87;12.63;;;;;;;13.21;89.87;100952.34;3468659;83;99345;-83
2022/11/03 10:53:02;;;;;;;14.03;5.12;;;;;;;13.26;89.78;100942.89;3476394;83;34836;-83
2022/11/03 10:58:03;;;;;;;15.37;5.00;;;;;;;13.29;88.87;100937.97;3489724;83;99178;-83
2022/11/03 11:03:05;;;;;;;10.53;4.60;;;;;;;13.31;88.62;100927.34;3499156;83;33026;-83
2022/11/03 11:08:08;;;;;;;11.63;5.30;;;;;;;13.33;88.25;100916.67;3491103;83;99198;-83
2022/11/03 11:13:21;;;;;;;12.07;4.47;;;;;;;13.31;87.66;100904.61;3492950;83;34840;-82
2022/11/03 11:18:33;;;;;;;14.60;5.15;;;;;;;13.17;87.43;100881.61;3494745;83;99305;-82
2022/11/03 11:23:40;;;;;;;16.95;6.35;;;;;;;13.29;86.66;100900.64;3498290;83;34842;-83
2022/11/03 11:28:45;;;;;;;13.98;4.00;;;;;;;13.32;85.83;100897.93;3489812;83;99029;-82
2022/11/03 11:33:46;;;;;;;12.43;4.35;;;;;;;13.34;85.18;100888.66;3497467;83;35232;-81
2022/11/03 11:38:56;;;;;;;11.43;4.33;;;;;;;13.34;85.72;100872.07;3490610;83;99210;-82
2022/11/03 11:44:19;;;;;;;11.88;3.95;;;;;;;13.35;84.93;100864.58;3523501;82;34996;-82
2022/11/03 11:49:20;;;;;;;21.17;9.65;;;;;;;13.34;84.08;100851.33;3519055;82;99128;-82
2022/11/03 11:54:21;;;;;;;13.03;5.87;;;;;;;13.31;83.76;100835.50;3521241;84;26218;-82
2022/11/03 11:59:23;;;;;;;15.03;7.50;;;;;;;13.33;83.57;100828.21;3518864;82;98990;-82
2022/11/03 12:04:30;;;;;;;17.60;6.10;;;;;;;13.32;82.89;100816.37;3520422;82;30021;-81
2022/11/03 12:09:30;;;;;;;13.15;4.45;;;;;;;13.33;82.36;100811.05;3520269;82;98935;-82
2022/11/03 12:14:36;;;;;;;13.17;3.30;;;;;;;13.37;81.96;100796.66;3520421;82;31976;-81
2022/11/03 12:19:48;;;;;;;14.07;4.78;;;;;;;13.39;81.61;100788.77;3506145;82;98853;-82
2022/11/03 12:24:58;;;;;;;12.65;3.67;;;;;;;13.38;80.70;100783.04;3528780;82;34792;-82
2022/11/03 12:30:03;;;;;;;12.60;3.35;;;;;;;13.35;80.27;100775.50;3521501;82;98765;-82
2022/11/03 12:35:07;;;;;;;11.78;3.05;;;;;;;13.33;79.44;100774.31;3525284;82;34883;-82
2022/11/03 12:40:11;;;;;;;14.18;5.40;;;;;;;13.33;78.92;100753.00;3513412;82;99475;-82
2022/11/03 12:45:12;;;;;;;22.48;6.92;;;;;;;13.34;78.80;100742.72;3500805;83;34940;-82
2022/11/03 12:50:13;;;;;;;12.97;6.30;;;;;;;13.35;78.79;100740.17;3492957;83;99348;-82
2022/11/03 12:55:14;;;;;;;11.67;4.37;;;;;;;13.37;77.89;100730.31;3500751;83;31089;-82
2022/11/03 13:00:16;;;;;;;14.33;4.77;;;;;;;13.38;77.79;100720.03;3492783;83;98966;-82
2022/11/03 13:05:17;;;;;;;11.50;3.40;;;;;;;13.34;77.27;100713.69;3498427;83;31048;-82
2022/11/03 13:10:18;;;;;;;11.63;3.53;;;;;;;13.34;76.69;100706.77;3495776;83;99130;-82
2022/11/03 13:15:19;;;;;;;9.77;3.53;;;;;;;13.33;76.75;100692.18;3501823;83;27776;-82
2022/11/03 13:20:19;;;;;;;10.95;2.87;;;;;;;13.31;76.77;100684.84;3497135;83;98366;-82
2022/11/03 13:25:23;;;;;;;15.27;4.07;;;;;;;13.24;76.02;100669.62;3497526;83;25853;-82
2022/11/03 13:30:24;;;;;;;10.90;4.40;;;;;;;13.21;76.05;100664.89;3494572;83;98749;-82
2022/11/03 13:35:25;;;;;;;7.05;2.95;;;;;;;13.21;76.58;100664.09;3498921;83;34896;-82
2022/11/03 13:40:26;;;;;;;9.53;3.50;;;;;;;13.16;76.60;100644.53;3491051;82;98653;-82
2022/11/03 13:45:27;;;;;;;8.37;3.23;;;;;;;13.13;77.04;100647.28;3514002;82;28286;-82
2022/11/03 13:50:28;;;;;;;10.60;2.97;;;;;;;13.10;76.17;100645.28;3506461;82;98637;-82
2022/11/03 13:55:28;;;;;;;9.83;3.67;;;;;;;13.02;75.27;100636.78;3511996;82;26146;-82
2022/11/03 14:00:29;;;;;;;8.50;3.13;;;;;;;12.98;74.54;100630.44;3506307;82;98509;-82
2022/11/03 14:05:30;;;;;;;13.53;3.43;;;;;;;12.93;74.79;100628.02;3475391;82;32460;-82
2022/11/03 14:10:31;;;;;;;9.10;3.13;;;;;;;12.85;74.97;100630.52;3504855;82;98730;-82
2022/11/03 14:15:33;;;;;;;7.47;3.27;;;;;;;12.80;75.68;100620.64;3513896;82;32445;-82
2022/11/03 14:20:34;;;;;;;12.65;5.25;;;;;;;12.72;76.01;100617.66;3507318;82;98533;-81
2022/11/03 14:25:35;;;;;;;13.93;5.10;;;;;;;12.61;76.52;100614.05;3512680;82;29588;-81
2022/11/03 14:30:35;;;;;;;10.57;4.87;;;;;;;12.53;76.99;100611.63;3500483;82;98522;-82
2022/11/03 14:35:36;;;;;;;11.53;4.50;;;;;;;12.42;77.40;100603.88;3516173;82;26341;-81
2022/11/03 14:45:56;;;;;;;11.15;4.70;;;;;;;12.21;77.89;100596.83;3476453;84;32528;-81
2022/11/03 14:50:57;;;;;;;11.33;4.67;;;;;;;12.09;78.21;100573.66;3470057;84;99005;-81
2022/11/03 14:55:58;;;;;;;14.77;5.17;;;;;;;11.99;78.65;100573.02;3474717;84;26317;-81
2022/11/03 15:00:59;;;;;;;16.05;5.58;;;;;;;11.89;79.20;100568.98;3467278;84;99180;-81
2022/11/03 15:05:59;;;;;;;14.20;5.57;;;;;;;11.77;79.71;100569.89;3473669;84;26238;-82
2022/11/03 15:11:00;;;;;;;10.00;5.00;;;;;;;11.64;80.26;100563.86;3466363;84;98598;-82
2022/11/03 15:16:01;;;;;;;15.70;5.97;;;;;;;11.54;80.67;100560.96;3475830;84;26511;-82
2022/11/03 15:21:02;;;;;;;17.48;5.80;;;;;;;11.43;81.09;100562.25;3399531;85;99049;-81
2022/11/03 15:26:03;;;;;;;16.60;6.33;;;;;;;11.34;81.54;100569.25;3353483;87;34080;-82
2022/11/03 15:31:06;;;;;;;19.80;7.97;;;;;;;11.22;81.85;100569.50;3340009;87;98922;-82
2022/11/03 15:36:07;;;;;;;24.97;8.47;;;;;;;11.12;82.19;100555.05;3462684;84;26795;-82
2022/11/03 15:41:14;;;;;;;22.47;7.50;;;;;;;11.02;82.45;100533.69;3472908;83;98805;-82
2022/11/03 15:46:17;;;;;;;15.20;7.10;;;;;;;10.92;82.80;100521.97;3470282;83;99137;-82
2022/11/03 15:51:17;;;;;;;22.67;7.10;;;;;;;10.82;83.07;100519.88;3511860;82;26388;-82
2022/11/03 15:56:18;;;;;;;15.37;6.53;;;;;;;10.73;83.25;100515.23;3503775;82;98820;-82
2022/11/03 16:01:19;;;;;;;17.43;7.80;;;;;;;10.62;83.47;100501.37;3513766;82;25802;-82
2022/11/03 16:06:20;;;;;;;21.00;9.00;;;;;;;10.55;83.77;100494.98;3505394;82;99104;-83
2022/11/03 16:11:21;;;;;;;21.17;8.63;;;;;;;10.47;83.98;100494.09;3512818;82;33260;-82
2022/11/03 16:16:22;;;;;;;17.13;8.47;;;;;;;10.41;84.21;100481.07;3503637;82;99188;-83
2022/11/03 16:21:23;;;;;;;19.90;8.40;;;;;;;10.32;84.43;100477.80;3515092;82;33261;-82
2022/11/03 16:26:24;;;;;;;18.63;8.30;;;;;;;10.27;84.71;100465.75;3502214;82;99095;-83
2022/11/03 16:31:25;;;;;;;24.27;10.03;;;;;;;10.20;84.87;100452.69;3510469;82;34104;-82
2022/11/03 16:36:26;;;;;;;20.20;10.38;;;;;;;10.16;85.01;100438.12;3507359;82;99058;-83
2022/11/03 16:41:27;;;;;;;24.90;10.73;;;;;;;10.12;85.19;100424.09;3511311;82;32394;-82
2022/11/03 16:46:28;;;;;;;18.35;9.65;;;;;;;10.07;85.42;100416.17;3506792;82;99576;-83
2022/11/03 16:51:29;;;;;;;24.43;10.73;;;;;;;10.04;85.42;100409.46;3514064;82;32229;-82
2022/11/03 16:56:30;;;;;;;18.80;10.03;;;;;;;10.01;85.48;100403.89;3505350;82;99307;-83
2022/11/03 17:01:31;;;;;;;19.95;10.40;;;;;;;9.99;85.47;100410.36;3516559;82;32227;-83
2022/11/03 17:06:32;;;;;;;20.95;9.65;;;;;;;9.95;85.60;100410.88;3504435;82;99354;-83
2022/11/03 17:11:35;;;;;;;23.00;9.73;;;;;;;9.91;85.62;100395.72;3514189;82;31733;-83
2022/11/03 17:16:37;;;;;;;22.53;8.90;;;;;;;9.87;85.73;100389.98;3500209;82;98496;-83
2022/11/03 17:21:39;;;;;;;19.03;8.93;;;;;;;9.84;85.87;100374.22;3511566;82;31978;-84
2022/11/03 17:26:54;;;;;;;20.53;9.90;;;;;;;9.81;85.95;100370.86;3472652;82;98840;-83
2022/11/03 17:31:55;;;;;;;21.65;9.85;;;;;;;9.78;86.01;100369.64;3509151;82;33210;-83
2022/11/03 17:36:57;;;;;;;21.97;9.60;;;;;;;9.74;86.22;100353.69;3504553;82;98917;-83
2022/11/03 17:42:12;;;;;;;21.00;9.17;;;;;;;9.72;86.32;100349.72;3508138;82;30514;-84
2022/11/03 17:47:15;;;;;;;22.57;9.27;;;;;;;9.69;86.36;100340.84;3499268;82;98834;-83
2022/11/03 17:52:20;;;;;;;20.87;8.70;;;;;;;9.68;86.47;100329.07;3507652;82;31388;-83
2022/11/03 17:57:21;;;;;;;24.07;9.50;;;;;;;9.68;86.51;100315.91;3498672;82;98854;-83
2022/11/03 18:02:25;;;;;;;20.45;9.35;;;;;;;9.67;86.49;100304.70;3507756;82;32281;-83
2022/11/03 18:07:28;;;;;;;24.15;10.60;;;;;;;9.66;86.52;100299.78;3503200;82;98826;-83
2022/11/03 18:18:01;;;;;;;27.37;13.83;;;;;;;9.66;86.46;100278.40;3501867;82;98575;-82
2022/11/03 18:23:24;;;;;;;20.43;8.85;;;;;;;9.65;86.56;100280.95;3503728;82;33310;-82
2022/11/03 18:28:25;;;;;;;20.95;9.73;;;;;;;9.64;86.46;100267.77;3503429;82;98787;-82
2022/11/03 18:33:31;;;;;;;20.90;9.30;;;;;;;9.65;86.51;100251.49;3509792;82;31627;-83
2022/11/03 18:38:35;;;;;;;19.40;9.68;;;;;;;9.62;86.49;100250.88;3491804;82;98482;-83
2022/11/03 18:43:38;;;;;;;24.52;9.78;;;;;;;9.61;86.45;100254.00;3502970;82;33318;-83
2022/11/03 18:48:39;;;;;;;20.50;10.33;;;;;;;9.58;86.45;100238.25;3491858;83;98424;-83
2022/11/03 18:53:39;;;;;;;20.07;9.47;;;;;;;9.56;86.48;100235.09;3495512;83;31718;-82
2022/11/03 18:58:40;;;;;;;19.40;9.77;;;;;;;9.52;86.43;100215.83;3489794;83;98712;-82
2022/11/03 19:03:41;;;;;;;19.90;9.17;;;;;;;9.49;86.39;100200.08;3495992;83;31773;-82
2022/11/03 19:08:43;;;;;;;21.57;8.53;;;;;;;9.46;86.39;100189.86;3486408;83;98444;-82
2022/11/03 19:13:46;;;;;;;24.40;10.57;;;;;;;9.42;86.47;100184.90;3498711;83;31733;-82
2022/11/03 19:18:48;;;;;;;22.37;10.60;;;;;;;9.39;86.52;100180.74;3487944;83;99051;-83
2022/11/03 19:23:50;;;;;;;22.63;9.10;;;;;;;9.34;86.51;100171.46;3485359;83;31497;-83
2022/11/03 19:29:12;;;;;;;22.73;10.65;;;;;;;9.31;86.58;100170.82;3490062;83;98654;-83
2022/11/03 19:34:17;;;;;;;28.30;11.23;;;;;;;9.26;86.69;100151.36;3496617;83;32499;-83
2022/11/03 19:39:30;;;;;;;25.55;11.10;;;;;;;9.22;86.87;100147.77;3491042;83;98725;-83
2022/11/03 19:44:31;;;;;;;22.58;11.03;;;;;;;9.20;86.99;100143.83;3504129;82;33663;-83
2022/11/03 19:49:33;;;;;;;23.70;10.00;;;;;;;9.17;87.07;100141.23;3469380;83;98325;-83
2022/11/03 19:54:34;;;;;;;22.30;11.10;;;;;;;9.18;87.09;100132.44;3507417;82;33766;-82
2022/11/03 19:59:35;;;;;;;28.10;11.70;;;;;;;9.16;87.22;100115.56;3498013;82;98711;-83
2022/11/03 20:04:36;;;;;;;24.23;12.13;;;;;;;9.13;87.22;100103.37;3504984;82;26312;-82
2022/11/03 20:09:37;;;;;;;22.30;10.43;;;;;;;9.10;87.43;100091.75;3493362;82;98864;-82
2022/11/03 20:14:38;;;;;;;21.07;10.50;;;;;;;9.07;87.50;100080.16;3506521;82;31671;-82
2022/11/03 20:19:39;;;;;;;22.50;10.33;;;;;;;9.04;87.71;100074.04;3498050;82;98407;-82
2022/11/03 20:24:41;;;;;;;22.30;10.73;;;;;;;9.02;87.90;100072.83;3506427;82;31631;-82
2022/11/03 20:29:42;;;;;;;26.40;11.47;;;;;;;9.01;88.12;100068.52;3466185;83;98802;-82
2022/11/03 20:34:45;;;;;;;21.13;11.47;;;;;;;8.99;88.26;100065.36;3509628;82;31707;-81
2022/11/03 20:39:47;;;;;;;21.90;10.57;;;;;;;8.98;88.37;100063.76;3501280;82;98817;-82
2022/11/03 20:44:49;;;;;;;28.27;13.50;;;;;;;8.98;88.53;100055.53;3484032;82;31771;-83
2022/11/03 20:49:50;;;;;;;27.30;14.07;;;;;;;8.95;88.66;100051.58;3457498;84;98789;-82
2022/11/03 20:54:51;;;;;;;27.10;12.53;;;;;;;8.93;88.77;100032.53;3461793;84;31671;-83
2022/11/03 20:59:52;;;;;;;23.50;12.67;;;;;;;8.92;88.95;100030.39;3454529;84;98747;-82
2022/11/03 21:04:53;;;;;;;24.07;12.73;;;;;;;8.91;89.12;100014.29;3463410;84;31679;-82
2022/11/03 21:09:53;;;;;;;27.23;12.60;;;;;;;8.89;89.20;100008.40;3453845;84;98891;-83
2022/11/03 21:20:10;;;;;;;30.32;13.28;;;;;;;8.85;89.53;99998.76;3431993;84;98825;-82
2022/11/03 21:25:15;;;;;;;27.95;13.20;;;;;;;8.84;89.68;99992.27;3463319;84;33301;-82
2022/11/03 21:30:17;;;;;;;28.45;13.32;;;;;;;8.83;89.79;99981.09;3459443;84;98705;-83
2022/11/03 21:35:20;;;;;;;26.50;12.90;;;;;;;8.81;90.01;99983.40;3463356;84;27635;-83
2022/11/03 21:40:21;;;;;;;28.10;12.45;;;;;;;8.81;90.16;99982.83;3456227;84;98476;-82
2022/11/03 21:45:22;;;;;;;25.07;12.83;;;;;;;8.81;90.25;99975.97;3489418;82;31745;-82
2022/11/03 21:50:23;;;;;;;29.27;12.27;;;;;;;8.80;90.38;99962.63;3503398;82;98978;-82
2022/11/03 21:55:24;;;;;;;24.13;12.43;;;;;;;8.79;90.45;99956.94;3515940;82;31749;-82
2022/11/03 22:00:25;;;;;;;27.03;12.07;;;;;;;8.79;90.60;99949.48;3510299;82;98310;-83
2022/11/03 22:05:26;;;;;;;31.23;12.03;;;;;;;8.79;90.67;99938.50;3508000;82;31636;-82
2022/11/03 22:10:27;;;;;;;22.53;12.07;;;;;;;8.81;90.74;99936.19;3509602;82;98880;-82
2022/11/03 22:31:39;;;;;;;26.27;12.63;;;;;;;8.84;91.02;99901.12;3506674;82;29500;-82
2022/11/03 22:36:40;;;;;;;24.25;11.73;;;;;;;8.85;91.07;99885.45;3498206;82;98615;-82
2022/11/03 22:47:00;;;;;;;24.72;11.50;;;;;;;8.87;91.22;99872.14;3506763;82;98675;-82
2022/11/03 22:52:01;;;;;;;27.03;12.03;;;;;;;8.88;91.22;99873.14;3514229;82;31600;-82
2022/11/03 22:57:02;;;;;;;26.87;12.23;;;;;;;8.89;91.28;99856.10;3463912;82;99162;-82
2022/11/03 23:02:03;;;;;;;24.90;12.50;;;;;;;8.90;91.33;99861.19;3503484;82;31712;-83
2022/11/03 23:07:04;;;;;;;24.37;12.17;;;;;;;8.91;91.36;99850.44;3494041;83;98576;-83
2022/11/03 23:12:05;;;;;;;29.83;11.60;;;;;;;8.92;91.40;99842.41;3503047;83;31683;-82
2022/11/03 23:17:06;;;;;;;26.80;12.07;;;;;;;8.93;91.48;99837.11;3499605;84;98868;-82
2022/11/03 23:22:06;;;;;;;25.73;11.17;;;;;;;8.93;91.58;99833.57;3502190;83;31690;-83
2022/11/03 23:27:08;;;;;;;24.05;11.22;;;;;;;8.93;91.62;99830.25;3502687;83;98769;-82
2022/11/03 23:32:08;;;;;;;21.60;12.45;;;;;;;8.94;91.70;99835.94;3511307;82;30253;-83
2022/11/03 23:37:09;;;;;;;23.30;12.37;;;;;;;8.96;91.69;99832.25;3503440;82;98718;-82
2022/11/03 23:42:10;;;;;;;25.50;11.70;;;;;;;8.96;91.65;99825.39;3514157;82;34869;-83
2022/11/03 23:52:30;;;;;;;29.27;12.63;;;;;;;8.96;91.69;99821.84;3483521;84;32963;-82
